sensor_id;sensor_type;location;lat;lon;timestamp;P1;durP1;ratioP1;P2;durP2;ratioP2
5620;SDS011;2832;50.864;12.186;2022-10-22T00:00:03;0.93;;;0.93;;
5620;SDS011;2832;50.864;12.186;2022-10-22T00:02:32;1.00;;;1.00;;
5620;SDS011;2832;50.864;12.186;2022-10-22T00:05:00;0.97;;;0.97;;
5620;SDS011;2832;50.864;12.186;2022-10-22T00:07:30;0.90;;;0.90;;
5620;SDS011;2832;50.864;12.186;2022-10-22T00:09:58;0.90;;;0.90;;
5620;SDS011;2832;50.864;12.186;2022-10-22T00:12:27;0.93;;;0.93;;
5620;SDS011;2832;50.864;12.186;2022-10-22T00:14:56;1.00;;;1.00;;
5620;SDS011;2832;50.864;12.186;2022-10-22T00:17:24;0.90;;;0.90;;
5620;SDS011;2832;50.864;12.186;2022-10-22T00:19:51;0.90;;;0.90;;
5620;SDS011;2832;50.864;12.186;2022-10-22T00:22:19;1.00;;;1.00;;
5620;SDS011;2832;50.864;12.186;2022-10-22T00:24:48;0.90;;;0.90;;
5620;SDS011;2832;50.864;12.186;2022-10-22T00:27:16;0.90;;;0.90;;
5620;SDS011;2832;50.864;12.186;2022-10-22T00:29:43;0.90;;;0.90;;
5620;SDS011;2832;50.864;12.186;2022-10-22T00:32:11;1.00;;;1.00;;
5620;SDS011;2832;50.864;12.186;2022-10-22T00:34:40;0.90;;;0.90;;
5620;SDS011;2832;50.864;12.186;2022-10-22T00:37:08;1.00;;;1.00;;
5620;SDS011;2832;50.864;12.186;2022-10-22T00:39:35;0.90;;;0.90;;
5620;SDS011;2832;50.864;12.186;2022-10-22T00:42:06;0.90;;;0.90;;
5620;SDS011;2832;50.864;12.186;2022-10-22T00:47:30;0.90;;;0.90;;
5620;SDS011;2832;50.864;12.186;2022-10-22T00:49:59;1.00;;;1.00;;
5620;SDS011;2832;50.864;12.186;2022-10-22T00:52:29;1.00;;;1.00;;
5620;SDS011;2832;50.864;12.186;2022-10-22T00:54:57;0.90;;;0.90;;
5620;SDS011;2832;50.864;12.186;2022-10-22T00:57:28;1.00;;;1.00;;
5620;SDS011;2832;50.864;12.186;2022-10-22T00:59:56;0.90;;;0.90;;
5620;SDS011;2832;50.864;12.186;2022-10-22T01:02:25;0.90;;;0.90;;
5620;SDS011;2832;50.864;12.186;2022-10-22T01:04:53;0.90;;;0.90;;
5620;SDS011;2832;50.864;12.186;2022-10-22T01:07:21;0.97;;;0.97;;
5620;SDS011;2832;50.864;12.186;2022-10-22T01:09:53;0.90;;;0.90;;
5620;SDS011;2832;50.864;12.186;2022-10-22T01:12:37;0.90;;;0.90;;
5620;SDS011;2832;50.864;12.186;2022-10-22T01:15:13;1.00;;;1.00;;
5620;SDS011;2832;50.864;12.186;2022-10-22T01:17:51;0.90;;;0.90;;
5620;SDS011;2832;50.864;12.186;2022-10-22T01:23:22;0.90;;;0.90;;
5620;SDS011;2832;50.864;12.186;2022-10-22T01:26:11;0.90;;;0.90;;
5620;SDS011;2832;50.864;12.186;2022-10-22T01:28:50;0.90;;;0.90;;
5620;SDS011;2832;50.864;12.186;2022-10-22T01:31:25;0.90;;;0.90;;
5620;SDS011;2832;50.864;12.186;2022-10-22T01:33:59;1.00;;;1.00;;
5620;SDS011;2832;50.864;12.186;2022-10-22T01:36:29;0.90;;;0.90;;
5620;SDS011;2832;50.864;12.186;2022-10-22T01:38:59;0.90;;;0.90;;
5620;SDS011;2832;50.864;12.186;2022-10-22T01:41:29;0.93;;;0.93;;
5620;SDS011;2832;50.864;12.186;2022-10-22T01:43:58;1.00;;;1.00;;
5620;SDS011;2832;50.864;12.186;2022-10-22T01:46:27;0.90;;;0.90;;
5620;SDS011;2832;50.864;12.186;2022-10-22T01:49:00;0.90;;;0.90;;
5620;SDS011;2832;50.864;12.186;2022-10-22T01:51:41;1.00;;;1.00;;
5620;SDS011;2832;50.864;12.186;2022-10-22T01:54:19;0.90;;;0.90;;
5620;SDS011;2832;50.864;12.186;2022-10-22T01:56:54;1.00;;;1.00;;
5620;SDS011;2832;50.864;12.186;2022-10-22T01:59:34;1.00;;;1.00;;
5620;SDS011;2832;50.864;12.186;2022-10-22T02:02:13;1.00;;;1.00;;
5620;SDS011;2832;50.864;12.186;2022-10-22T02:04:51;1.00;;;1.00;;
5620;SDS011;2832;50.864;12.186;2022-10-22T02:07:24;1.00;;;1.00;;
5620;SDS011;2832;50.864;12.186;2022-10-22T02:09:56;1.00;;;1.00;;
5620;SDS011;2832;50.864;12.186;2022-10-22T02:12:26;0.90;;;0.90;;
5620;SDS011;2832;50.864;12.186;2022-10-22T02:14:58;1.00;;;1.00;;
5620;SDS011;2832;50.864;12.186;2022-10-22T02:17:29;0.90;;;0.90;;
5620;SDS011;2832;50.864;12.186;2022-10-22T02:20:01;0.93;;;0.93;;
5620;SDS011;2832;50.864;12.186;2022-10-22T02:22:32;1.00;;;1.00;;
5620;SDS011;2832;50.864;12.186;2022-10-22T02:25:01;0.90;;;0.90;;
5620;SDS011;2832;50.864;12.186;2022-10-22T02:27:29;0.90;;;0.90;;
5620;SDS011;2832;50.864;12.186;2022-10-22T02:30:03;1.00;;;1.00;;
5620;SDS011;2832;50.864;12.186;2022-10-22T02:32:35;0.90;;;0.90;;
5620;SDS011;2832;50.864;12.186;2022-10-22T02:35:09;1.00;;;1.00;;
5620;SDS011;2832;50.864;12.186;2022-10-22T02:37:40;0.93;;;0.93;;
5620;SDS011;2832;50.864;12.186;2022-10-22T02:40:09;1.00;;;1.00;;
5620;SDS011;2832;50.864;12.186;2022-10-22T02:42:37;0.90;;;0.90;;
5620;SDS011;2832;50.864;12.186;2022-10-22T02:45:09;1.00;;;1.00;;
5620;SDS011;2832;50.864;12.186;2022-10-22T02:47:37;1.00;;;1.00;;
5620;SDS011;2832;50.864;12.186;2022-10-22T02:50:05;1.00;;;1.00;;
5620;SDS011;2832;50.864;12.186;2022-10-22T02:52:34;1.00;;;1.00;;
5620;SDS011;2832;50.864;12.186;2022-10-22T02:55:01;0.90;;;0.90;;
5620;SDS011;2832;50.864;12.186;2022-10-22T02:57:29;1.00;;;1.00;;
5620;SDS011;2832;50.864;12.186;2022-10-22T02:59:57;1.00;;;1.00;;
5620;SDS011;2832;50.864;12.186;2022-10-22T03:02:26;1.00;;;1.00;;
5620;SDS011;2832;50.864;12.186;2022-10-22T03:04:54;1.00;;;1.00;;
5620;SDS011;2832;50.864;12.186;2022-10-22T03:07:22;0.90;;;0.90;;
5620;SDS011;2832;50.864;12.186;2022-10-22T03:09:49;1.00;;;1.00;;
5620;SDS011;2832;50.864;12.186;2022-10-22T03:12:17;0.90;;;0.90;;
5620;SDS011;2832;50.864;12.186;2022-10-22T03:14:46;0.97;;;0.97;;
5620;SDS011;2832;50.864;12.186;2022-10-22T03:17:13;0.90;;;0.90;;
5620;SDS011;2832;50.864;12.186;2022-10-22T03:19:43;0.97;;;0.97;;
5620;SDS011;2832;50.864;12.186;2022-10-22T03:22:12;0.90;;;0.90;;
5620;SDS011;2832;50.864;12.186;2022-10-22T03:24:44;0.90;;;0.90;;
5620;SDS011;2832;50.864;12.186;2022-10-22T03:27:14;0.90;;;0.90;;
5620;SDS011;2832;50.864;12.186;2022-10-22T03:29:44;1.00;;;1.00;;
5620;SDS011;2832;50.864;12.186;2022-10-22T03:32:12;0.90;;;0.90;;
5620;SDS011;2832;50.864;12.186;2022-10-22T03:34:40;0.90;;;0.90;;
5620;SDS011;2832;50.864;12.186;2022-10-22T03:37:09;0.90;;;0.90;;
5620;SDS011;2832;50.864;12.186;2022-10-22T03:39:38;1.00;;;1.00;;
5620;SDS011;2832;50.864;12.186;2022-10-22T03:42:06;0.90;;;0.90;;
5620;SDS011;2832;50.864;12.186;2022-10-22T03:44:35;0.93;;;0.93;;
5620;SDS011;2832;50.864;12.186;2022-10-22T03:47:04;1.00;;;1.00;;
5620;SDS011;2832;50.864;12.186;2022-10-22T03:49:32;1.00;;;1.00;;
5620;SDS011;2832;50.864;12.186;2022-10-22T03:52:04;1.00;;;1.00;;
5620;SDS011;2832;50.864;12.186;2022-10-22T03:54:34;1.00;;;1.00;;
5620;SDS011;2832;50.864;12.186;2022-10-22T03:57:02;0.90;;;0.90;;
5620;SDS011;2832;50.864;12.186;2022-10-22T03:59:33;0.90;;;0.90;;
5620;SDS011;2832;50.864;12.186;2022-10-22T04:02:02;0.90;;;0.90;;
5620;SDS011;2832;50.864;12.186;2022-10-22T04:04:30;0.90;;;0.90;;
5620;SDS011;2832;50.864;12.186;2022-10-22T04:06:58;1.00;;;1.00;;
5620;SDS011;2832;50.864;12.186;2022-10-22T04:09:26;0.90;;;0.90;;
5620;SDS011;2832;50.864;12.186;2022-10-22T04:11:58;1.00;;;1.00;;
5620;SDS011;2832;50.864;12.186;2022-10-22T04:14:26;1.00;;;1.00;;
5620;SDS011;2832;50.864;12.186;2022-10-22T04:16:54;1.00;;;1.00;;
5620;SDS011;2832;50.864;12.186;2022-10-22T04:19:22;0.90;;;0.90;;
5620;SDS011;2832;50.864;12.186;2022-10-22T04:21:50;1.00;;;1.00;;
5620;SDS011;2832;50.864;12.186;2022-10-22T04:24:17;1.00;;;1.00;;
5620;SDS011;2832;50.864;12.186;2022-10-22T04:26:45;0.97;;;0.97;;
5620;SDS011;2832;50.864;12.186;2022-10-22T04:29:14;1.00;;;1.00;;
5620;SDS011;2832;50.864;12.186;2022-10-22T04:31:41;0.90;;;0.90;;
5620;SDS011;2832;50.864;12.186;2022-10-22T04:34:09;0.90;;;0.90;;
5620;SDS011;2832;50.864;12.186;2022-10-22T04:36:37;0.90;;;0.90;;
5620;SDS011;2832;50.864;12.186;2022-10-22T04:39:05;1.00;;;1.00;;
5620;SDS011;2832;50.864;12.186;2022-10-22T04:41:34;1.00;;;1.00;;
5620;SDS011;2832;50.864;12.186;2022-10-22T04:44:03;0.90;;;0.90;;
5620;SDS011;2832;50.864;12.186;2022-10-22T04:46:33;0.90;;;0.90;;
5620;SDS011;2832;50.864;12.186;2022-10-22T04:49:02;1.00;;;1.00;;
5620;SDS011;2832;50.864;12.186;2022-10-22T04:51:30;0.90;;;0.90;;
5620;SDS011;2832;50.864;12.186;2022-10-22T04:53:58;0.90;;;0.90;;
5620;SDS011;2832;50.864;12.186;2022-10-22T04:56:28;1.00;;;1.00;;
5620;SDS011;2832;50.864;12.186;2022-10-22T04:58:57;0.90;;;0.90;;
5620;SDS011;2832;50.864;12.186;2022-10-22T05:01:27;1.00;;;1.00;;
5620;SDS011;2832;50.864;12.186;2022-10-22T05:03:58;1.00;;;1.00;;
5620;SDS011;2832;50.864;12.186;2022-10-22T05:06:28;1.00;;;1.00;;
5620;SDS011;2832;50.864;12.186;2022-10-22T05:08:57;0.90;;;0.90;;
5620;SDS011;2832;50.864;12.186;2022-10-22T05:11:26;0.90;;;0.90;;
5620;SDS011;2832;50.864;12.186;2022-10-22T05:13:56;1.00;;;1.00;;
5620;SDS011;2832;50.864;12.186;2022-10-22T05:16:25;0.90;;;0.90;;
5620;SDS011;2832;50.864;12.186;2022-10-22T05:18:53;0.90;;;0.90;;
5620;SDS011;2832;50.864;12.186;2022-10-22T05:21:23;1.00;;;1.00;;
5620;SDS011;2832;50.864;12.186;2022-10-22T05:23:50;1.00;;;1.00;;
5620;SDS011;2832;50.864;12.186;2022-10-22T05:26:20;0.90;;;0.90;;
5620;SDS011;2832;50.864;12.186;2022-10-22T05:28:49;0.90;;;0.90;;
5620;SDS011;2832;50.864;12.186;2022-10-22T05:31:17;0.90;;;0.90;;
5620;SDS011;2832;50.864;12.186;2022-10-22T05:33:46;1.00;;;1.00;;
5620;SDS011;2832;50.864;12.186;2022-10-22T05:36:14;0.90;;;0.90;;
5620;SDS011;2832;50.864;12.186;2022-10-22T05:38:45;0.97;;;0.97;;
5620;SDS011;2832;50.864;12.186;2022-10-22T05:41:14;0.90;;;0.90;;
5620;SDS011;2832;50.864;12.186;2022-10-22T05:43:42;0.97;;;0.97;;
5620;SDS011;2832;50.864;12.186;2022-10-22T05:46:11;0.90;;;0.90;;
5620;SDS011;2832;50.864;12.186;2022-10-22T05:48:40;1.00;;;1.00;;
5620;SDS011;2832;50.864;12.186;2022-10-22T05:51:10;1.00;;;1.00;;
5620;SDS011;2832;50.864;12.186;2022-10-22T05:53:39;0.97;;;0.97;;
5620;SDS011;2832;50.864;12.186;2022-10-22T05:56:10;1.00;;;1.00;;
5620;SDS011;2832;50.864;12.186;2022-10-22T05:58:39;1.00;;;1.00;;
5620;SDS011;2832;50.864;12.186;2022-10-22T06:01:10;0.90;;;0.90;;
5620;SDS011;2832;50.864;12.186;2022-10-22T06:03:39;1.00;;;1.00;;
5620;SDS011;2832;50.864;12.186;2022-10-22T06:06:12;1.00;;;1.00;;
5620;SDS011;2832;50.864;12.186;2022-10-22T06:08:45;0.90;;;0.90;;
5620;SDS011;2832;50.864;12.186;2022-10-22T06:11:15;1.00;;;1.00;;
5620;SDS011;2832;50.864;12.186;2022-10-22T06:13:44;1.00;;;1.00;;
5620;SDS011;2832;50.864;12.186;2022-10-22T06:16:13;1.00;;;1.00;;
5620;SDS011;2832;50.864;12.186;2022-10-22T06:18:41;0.90;;;0.90;;
5620;SDS011;2832;50.864;12.186;2022-10-22T06:21:10;1.00;;;1.00;;
5620;SDS011;2832;50.864;12.186;2022-10-22T06:23:39;0.90;;;0.90;;
5620;SDS011;2832;50.864;12.186;2022-10-22T06:26:08;1.00;;;1.00;;
5620;SDS011;2832;50.864;12.186;2022-10-22T06:28:38;0.90;;;0.90;;
5620;SDS011;2832;50.864;12.186;2022-10-22T06:31:05;1.00;;;1.00;;
5620;SDS011;2832;50.864;12.186;2022-10-22T06:33:33;0.90;;;0.90;;
5620;SDS011;2832;50.864;12.186;2022-10-22T06:36:07;0.90;;;0.90;;
5620;SDS011;2832;50.864;12.186;2022-10-22T06:38:36;0.90;;;0.90;;
5620;SDS011;2832;50.864;12.186;2022-10-22T06:41:05;1.00;;;1.00;;
5620;SDS011;2832;50.864;12.186;2022-10-22T06:43:34;0.90;;;0.90;;
5620;SDS011;2832;50.864;12.186;2022-10-22T06:46:05;0.97;;;0.97;;
5620;SDS011;2832;50.864;12.186;2022-10-22T06:48:34;1.00;;;1.00;;
5620;SDS011;2832;50.864;12.186;2022-10-22T06:51:02;1.00;;;1.00;;
5620;SDS011;2832;50.864;12.186;2022-10-22T06:53:31;1.00;;;1.00;;
5620;SDS011;2832;50.864;12.186;2022-10-22T06:56:03;0.90;;;0.90;;
5620;SDS011;2832;50.864;12.186;2022-10-22T06:58:32;0.90;;;0.90;;
5620;SDS011;2832;50.864;12.186;2022-10-22T07:01:00;1.00;;;1.00;;
5620;SDS011;2832;50.864;12.186;2022-10-22T07:03:31;0.90;;;0.90;;
5620;SDS011;2832;50.864;12.186;2022-10-22T07:05:58;0.90;;;0.90;;
5620;SDS011;2832;50.864;12.186;2022-10-22T07:08:27;1.00;;;1.00;;
5620;SDS011;2832;50.864;12.186;2022-10-22T07:11:03;0.90;;;0.90;;
5620;SDS011;2832;50.864;12.186;2022-10-22T07:13:32;0.90;;;0.90;;
5620;SDS011;2832;50.864;12.186;2022-10-22T07:16:00;0.90;;;0.90;;
5620;SDS011;2832;50.864;12.186;2022-10-22T07:18:28;0.90;;;0.90;;
5620;SDS011;2832;50.864;12.186;2022-10-22T07:20:59;0.90;;;0.90;;
5620;SDS011;2832;50.864;12.186;2022-10-22T07:23:27;1.00;;;1.00;;
5620;SDS011;2832;50.864;12.186;2022-10-22T07:25:55;0.90;;;0.90;;
5620;SDS011;2832;50.864;12.186;2022-10-22T07:28:23;1.00;;;1.00;;
5620;SDS011;2832;50.864;12.186;2022-10-22T07:30:52;1.00;;;1.00;;
5620;SDS011;2832;50.864;12.186;2022-10-22T07:33:20;0.90;;;0.90;;
5620;SDS011;2832;50.864;12.186;2022-10-22T07:35:49;0.90;;;0.90;;
5620;SDS011;2832;50.864;12.186;2022-10-22T07:38:17;1.00;;;1.00;;
5620;SDS011;2832;50.864;12.186;2022-10-22T07:40:45;0.90;;;0.90;;
5620;SDS011;2832;50.864;12.186;2022-10-22T07:43:12;0.90;;;0.90;;
5620;SDS011;2832;50.864;12.186;2022-10-22T07:45:40;1.00;;;1.00;;
5620;SDS011;2832;50.864;12.186;2022-10-22T07:48:08;1.00;;;1.00;;
5620;SDS011;2832;50.864;12.186;2022-10-22T07:50:36;0.90;;;0.90;;
5620;SDS011;2832;50.864;12.186;2022-10-22T07:53:06;0.90;;;0.90;;
5620;SDS011;2832;50.864;12.186;2022-10-22T07:55:34;0.93;;;0.93;;
5620;SDS011;2832;50.864;12.186;2022-10-22T07:58:02;0.90;;;0.90;;
5620;SDS011;2832;50.864;12.186;2022-10-22T08:00:30;1.00;;;1.00;;
5620;SDS011;2832;50.864;12.186;2022-10-22T08:02:57;1.00;;;1.00;;
5620;SDS011;2832;50.864;12.186;2022-10-22T08:05:26;0.90;;;0.90;;
5620;SDS011;2832;50.864;12.186;2022-10-22T08:07:53;1.00;;;1.00;;
5620;SDS011;2832;50.864;12.186;2022-10-22T08:10:22;1.00;;;1.00;;
5620;SDS011;2832;50.864;12.186;2022-10-22T08:12:50;0.90;;;0.90;;
5620;SDS011;2832;50.864;12.186;2022-10-22T08:15:18;1.00;;;1.00;;
5620;SDS011;2832;50.864;12.186;2022-10-22T08:17:46;0.90;;;0.90;;
5620;SDS011;2832;50.864;12.186;2022-10-22T08:20:14;0.90;;;0.90;;
5620;SDS011;2832;50.864;12.186;2022-10-22T08:22:42;1.00;;;1.00;;
5620;SDS011;2832;50.864;12.186;2022-10-22T08:25:10;1.00;;;1.00;;
5620;SDS011;2832;50.864;12.186;2022-10-22T08:27:39;1.00;;;1.00;;
5620;SDS011;2832;50.864;12.186;2022-10-22T08:30:07;1.00;;;1.00;;
5620;SDS011;2832;50.864;12.186;2022-10-22T08:32:36;0.90;;;0.90;;
5620;SDS011;2832;50.864;12.186;2022-10-22T08:35:04;1.00;;;1.00;;
5620;SDS011;2832;50.864;12.186;2022-10-22T08:37:32;0.90;;;0.90;;
5620;SDS011;2832;50.864;12.186;2022-10-22T08:40:00;0.90;;;0.90;;
5620;SDS011;2832;50.864;12.186;2022-10-22T08:42:32;0.90;;;0.90;;
5620;SDS011;2832;50.864;12.186;2022-10-22T08:45:33;1.00;;;1.00;;
5620;SDS011;2832;50.864;12.186;2022-10-22T08:48:09;1.00;;;1.00;;
5620;SDS011;2832;50.864;12.186;2022-10-22T08:50:49;1.00;;;1.00;;
5620;SDS011;2832;50.864;12.186;2022-10-22T08:53:21;0.90;;;0.90;;
5620;SDS011;2832;50.864;12.186;2022-10-22T08:55:54;1.00;;;1.00;;
5620;SDS011;2832;50.864;12.186;2022-10-22T08:58:24;1.00;;;1.00;;
5620;SDS011;2832;50.864;12.186;2022-10-22T09:01:03;1.00;;;1.00;;
5620;SDS011;2832;50.864;12.186;2022-10-22T09:03:39;0.90;;;0.90;;
5620;SDS011;2832;50.864;12.186;2022-10-22T09:06:13;1.00;;;1.00;;
5620;SDS011;2832;50.864;12.186;2022-10-22T09:08:45;1.10;;;1.10;;
5620;SDS011;2832;50.864;12.186;2022-10-22T09:14:03;1.00;;;1.00;;
5620;SDS011;2832;50.864;12.186;2022-10-22T09:16:33;1.00;;;1.00;;
5620;SDS011;2832;50.864;12.186;2022-10-22T09:19:08;0.90;;;0.90;;
5620;SDS011;2832;50.864;12.186;2022-10-22T09:21:45;0.97;;;0.97;;
5620;SDS011;2832;50.864;12.186;2022-10-22T09:24:27;1.00;;;1.00;;
5620;SDS011;2832;50.864;12.186;2022-10-22T09:27:00;1.00;;;1.00;;
5620;SDS011;2832;50.864;12.186;2022-10-22T09:29:37;0.90;;;0.90;;
5620;SDS011;2832;50.864;12.186;2022-10-22T09:32:05;0.90;;;0.90;;
5620;SDS011;2832;50.864;12.186;2022-10-22T09:34:33;0.97;;;0.97;;
5620;SDS011;2832;50.864;12.186;2022-10-22T09:37:02;1.00;;;1.00;;
5620;SDS011;2832;50.864;12.186;2022-10-22T09:39:32;1.00;;;1.00;;
5620;SDS011;2832;50.864;12.186;2022-10-22T09:42:01;0.90;;;0.90;;
5620;SDS011;2832;50.864;12.186;2022-10-22T09:44:30;0.90;;;0.90;;
5620;SDS011;2832;50.864;12.186;2022-10-22T09:47:01;1.00;;;1.00;;
5620;SDS011;2832;50.864;12.186;2022-10-22T09:49:32;1.00;;;1.00;;
5620;SDS011;2832;50.864;12.186;2022-10-22T09:52:01;0.90;;;0.90;;
5620;SDS011;2832;50.864;12.186;2022-10-22T09:54:36;0.90;;;0.90;;
5620;SDS011;2832;50.864;12.186;2022-10-22T09:57:12;0.90;;;0.90;;
5620;SDS011;2832;50.864;12.186;2022-10-22T09:59:43;0.90;;;0.90;;
5620;SDS011;2832;50.864;12.186;2022-10-22T10:02:18;0.90;;;0.90;;
5620;SDS011;2832;50.864;12.186;2022-10-22T10:04:47;1.00;;;1.00;;
5620;SDS011;2832;50.864;12.186;2022-10-22T10:07:16;0.90;;;0.90;;
5620;SDS011;2832;50.864;12.186;2022-10-22T10:09:45;1.00;;;1.00;;
5620;SDS011;2832;50.864;12.186;2022-10-22T10:12:17;0.90;;;0.90;;
5620;SDS011;2832;50.864;12.186;2022-10-22T10:14:59;0.97;;;0.97;;
5620;SDS011;2832;50.864;12.186;2022-10-22T10:17:35;1.00;;;1.00;;
5620;SDS011;2832;50.864;12.186;2022-10-22T10:20:16;0.97;;;0.97;;
5620;SDS011;2832;50.864;12.186;2022-10-22T10:22:54;0.90;;;0.90;;
5620;SDS011;2832;50.864;12.186;2022-10-22T10:28:18;0.90;;;0.90;;
5620;SDS011;2832;50.864;12.186;2022-10-22T10:30:55;1.00;;;1.00;;
5620;SDS011;2832;50.864;12.186;2022-10-22T10:33:35;1.00;;;1.00;;
5620;SDS011;2832;50.864;12.186;2022-10-22T10:36:15;0.20;;;0.20;;
5620;SDS011;2832;50.864;12.186;2022-10-22T10:38:51;0.20;;;0.20;;
5620;SDS011;2832;50.864;12.186;2022-10-22T10:41:27;0.90;;;0.90;;
5620;SDS011;2832;50.864;12.186;2022-10-22T10:47:07;1.00;;;1.00;;
5620;SDS011;2832;50.864;12.186;2022-10-22T10:49:43;1.00;;;1.00;;
5620;SDS011;2832;50.864;12.186;2022-10-22T10:52:15;1.00;;;1.00;;
5620;SDS011;2832;50.864;12.186;2022-10-22T10:54:56;0.90;;;0.90;;
5620;SDS011;2832;50.864;12.186;2022-10-22T10:57:42;0.90;;;0.90;;
5620;SDS011;2832;50.864;12.186;2022-10-22T11:00:15;1.00;;;1.00;;
5620;SDS011;2832;50.864;12.186;2022-10-22T11:03:01;1.00;;;1.00;;
5620;SDS011;2832;50.864;12.186;2022-10-22T11:05:54;0.90;;;0.90;;
5620;SDS011;2832;50.864;12.186;2022-10-22T11:08:25;0.90;;;0.90;;
5620;SDS011;2832;50.864;12.186;2022-10-22T11:11:00;0.90;;;0.90;;
5620;SDS011;2832;50.864;12.186;2022-10-22T11:13:33;0.90;;;0.90;;
5620;SDS011;2832;50.864;12.186;2022-10-22T11:16:18;0.90;;;0.90;;
5620;SDS011;2832;50.864;12.186;2022-10-22T11:18:57;1.00;;;1.00;;
5620;SDS011;2832;50.864;12.186;2022-10-22T11:21:33;0.90;;;0.90;;
5620;SDS011;2832;50.864;12.186;2022-10-22T11:24:08;0.90;;;0.90;;
5620;SDS011;2832;50.864;12.186;2022-10-22T11:26:43;0.93;;;0.93;;
5620;SDS011;2832;50.864;12.186;2022-10-22T11:29:16;1.00;;;1.00;;
5620;SDS011;2832;50.864;12.186;2022-10-22T11:31:49;1.00;;;1.00;;
5620;SDS011;2832;50.864;12.186;2022-10-22T11:34:21;0.90;;;0.90;;
5620;SDS011;2832;50.864;12.186;2022-10-22T11:36:54;0.90;;;0.90;;
5620;SDS011;2832;50.864;12.186;2022-10-22T11:42:17;1.00;;;1.00;;
5620;SDS011;2832;50.864;12.186;2022-10-22T11:44:48;1.00;;;1.00;;
5620;SDS011;2832;50.864;12.186;2022-10-22T11:47:26;0.90;;;0.90;;
5620;SDS011;2832;50.864;12.186;2022-10-22T11:49:58;0.90;;;0.90;;
5620;SDS011;2832;50.864;12.186;2022-10-22T11:52:48;0.90;;;0.90;;
5620;SDS011;2832;50.864;12.186;2022-10-22T11:55:33;1.00;;;1.00;;
5620;SDS011;2832;50.864;12.186;2022-10-22T11:58:32;0.90;;;0.90;;
5620;SDS011;2832;50.864;12.186;2022-10-22T12:04:17;0.97;;;0.97;;
5620;SDS011;2832;50.864;12.186;2022-10-22T12:06:57;0.90;;;0.90;;
5620;SDS011;2832;50.864;12.186;2022-10-22T12:09:27;0.90;;;0.90;;
5620;SDS011;2832;50.864;12.186;2022-10-22T12:12:08;1.00;;;1.00;;
5620;SDS011;2832;50.864;12.186;2022-10-22T12:14:50;0.87;;;0.87;;
5620;SDS011;2832;50.864;12.186;2022-10-22T12:17:20;1.00;;;1.00;;
5620;SDS011;2832;50.864;12.186;2022-10-22T12:19:50;0.90;;;0.90;;
5620;SDS011;2832;50.864;12.186;2022-10-22T12:22:25;0.90;;;0.90;;
5620;SDS011;2832;50.864;12.186;2022-10-22T12:24:58;0.93;;;0.93;;
5620;SDS011;2832;50.864;12.186;2022-10-22T12:27:32;0.90;;;0.90;;
5620;SDS011;2832;50.864;12.186;2022-10-22T12:30:02;0.90;;;0.90;;
5620;SDS011;2832;50.864;12.186;2022-10-22T12:32:44;0.80;;;0.80;;
5620;SDS011;2832;50.864;12.186;2022-10-22T12:35:14;0.90;;;0.90;;
5620;SDS011;2832;50.864;12.186;2022-10-22T12:37:47;0.90;;;0.90;;
5620;SDS011;2832;50.864;12.186;2022-10-22T12:40:19;0.90;;;0.90;;
5620;SDS011;2832;50.864;12.186;2022-10-22T12:42:50;0.90;;;0.90;;
5620;SDS011;2832;50.864;12.186;2022-10-22T12:45:19;0.90;;;0.90;;
5620;SDS011;2832;50.864;12.186;2022-10-22T12:47:48;1.00;;;1.00;;
5620;SDS011;2832;50.864;12.186;2022-10-22T12:50:19;1.00;;;1.00;;
5620;SDS011;2832;50.864;12.186;2022-10-22T12:52:52;0.90;;;0.90;;
5620;SDS011;2832;50.864;12.186;2022-10-22T12:55:22;0.90;;;0.90;;
5620;SDS011;2832;50.864;12.186;2022-10-22T12:57:52;0.90;;;0.90;;
5620;SDS011;2832;50.864;12.186;2022-10-22T13:00:21;0.97;;;0.97;;
5620;SDS011;2832;50.864;12.186;2022-10-22T13:02:50;0.80;;;0.80;;
5620;SDS011;2832;50.864;12.186;2022-10-22T13:05:22;0.90;;;0.90;;
5620;SDS011;2832;50.864;12.186;2022-10-22T13:07:53;0.80;;;0.80;;
5620;SDS011;2832;50.864;12.186;2022-10-22T13:10:35;0.90;;;0.90;;
5620;SDS011;2832;50.864;12.186;2022-10-22T13:13:04;0.90;;;0.90;;
5620;SDS011;2832;50.864;12.186;2022-10-22T13:15:34;0.90;;;0.90;;
5620;SDS011;2832;50.864;12.186;2022-10-22T13:18:05;0.90;;;0.90;;
5620;SDS011;2832;50.864;12.186;2022-10-22T13:20:55;0.80;;;0.80;;
5620;SDS011;2832;50.864;12.186;2022-10-22T13:23:27;0.90;;;0.90;;
5620;SDS011;2832;50.864;12.186;2022-10-22T13:25:58;0.20;;;0.20;;
5620;SDS011;2832;50.864;12.186;2022-10-22T13:28:28;0.20;;;0.20;;
5620;SDS011;2832;50.864;12.186;2022-10-22T13:30:58;0.20;;;0.20;;
5620;SDS011;2832;50.864;12.186;2022-10-22T13:33:29;0.10;;;0.10;;
5620;SDS011;2832;50.864;12.186;2022-10-22T13:36:00;0.17;;;0.17;;
5620;SDS011;2832;50.864;12.186;2022-10-22T13:38:28;0.90;;;0.90;;
5620;SDS011;2832;50.864;12.186;2022-10-22T13:40:58;0.90;;;0.90;;
5620;SDS011;2832;50.864;12.186;2022-10-22T13:43:29;0.90;;;0.90;;
5620;SDS011;2832;50.864;12.186;2022-10-22T13:45:57;0.90;;;0.90;;
5620;SDS011;2832;50.864;12.186;2022-10-22T13:48:27;0.93;;;0.93;;
5620;SDS011;2832;50.864;12.186;2022-10-22T13:50:55;0.93;;;0.93;;
5620;SDS011;2832;50.864;12.186;2022-10-22T13:53:24;1.00;;;1.00;;
5620;SDS011;2832;50.864;12.186;2022-10-22T13:55:53;0.90;;;0.90;;
5620;SDS011;2832;50.864;12.186;2022-10-22T13:58:23;0.90;;;0.90;;
5620;SDS011;2832;50.864;12.186;2022-10-22T14:00:51;0.90;;;0.90;;
5620;SDS011;2832;50.864;12.186;2022-10-22T14:03:23;0.90;;;0.90;;
5620;SDS011;2832;50.864;12.186;2022-10-22T14:05:53;0.90;;;0.90;;
5620;SDS011;2832;50.864;12.186;2022-10-22T14:08:23;0.90;;;0.90;;
5620;SDS011;2832;50.864;12.186;2022-10-22T14:10:52;0.90;;;0.90;;
5620;SDS011;2832;50.864;12.186;2022-10-22T14:13:20;0.90;;;0.90;;
5620;SDS011;2832;50.864;12.186;2022-10-22T14:15:50;0.90;;;0.90;;
5620;SDS011;2832;50.864;12.186;2022-10-22T14:18:20;0.90;;;0.90;;
5620;SDS011;2832;50.864;12.186;2022-10-22T14:20:51;0.90;;;0.90;;
5620;SDS011;2832;50.864;12.186;2022-10-22T14:23:22;0.97;;;0.97;;
5620;SDS011;2832;50.864;12.186;2022-10-22T14:25:52;1.00;;;1.00;;
5620;SDS011;2832;50.864;12.186;2022-10-22T14:28:20;0.80;;;0.80;;
5620;SDS011;2832;50.864;12.186;2022-10-22T14:30:50;1.00;;;1.00;;
5620;SDS011;2832;50.864;12.186;2022-10-22T14:33:18;0.90;;;0.90;;
5620;SDS011;2832;50.864;12.186;2022-10-22T14:35:48;0.90;;;0.90;;
5620;SDS011;2832;50.864;12.186;2022-10-22T14:38:16;0.90;;;0.90;;
5620;SDS011;2832;50.864;12.186;2022-10-22T14:40:45;0.90;;;0.90;;
5620;SDS011;2832;50.864;12.186;2022-10-22T14:43:15;0.80;;;0.80;;
5620;SDS011;2832;50.864;12.186;2022-10-22T14:45:48;0.80;;;0.80;;
5620;SDS011;2832;50.864;12.186;2022-10-22T14:48:16;0.90;;;0.90;;
5620;SDS011;2832;50.864;12.186;2022-10-22T14:50:45;0.90;;;0.90;;
5620;SDS011;2832;50.864;12.186;2022-10-22T14:53:13;0.90;;;0.90;;
5620;SDS011;2832;50.864;12.186;2022-10-22T14:55:43;0.90;;;0.90;;
5620;SDS011;2832;50.864;12.186;2022-10-22T14:58:12;0.90;;;0.90;;
5620;SDS011;2832;50.864;12.186;2022-10-22T15:00:39;0.90;;;0.90;;
5620;SDS011;2832;50.864;12.186;2022-10-22T15:03:09;0.80;;;0.80;;
5620;SDS011;2832;50.864;12.186;2022-10-22T15:05:38;0.90;;;0.90;;
5620;SDS011;2832;50.864;12.186;2022-10-22T15:08:09;1.00;;;1.00;;
5620;SDS011;2832;50.864;12.186;2022-10-22T15:10:37;0.90;;;0.90;;
5620;SDS011;2832;50.864;12.186;2022-10-22T15:13:04;0.80;;;0.80;;
5620;SDS011;2832;50.864;12.186;2022-10-22T15:15:34;0.90;;;0.90;;
5620;SDS011;2832;50.864;12.186;2022-10-22T15:18:01;0.90;;;0.90;;
5620;SDS011;2832;50.864;12.186;2022-10-22T15:20:31;0.90;;;0.90;;
5620;SDS011;2832;50.864;12.186;2022-10-22T15:22:59;0.90;;;0.90;;
5620;SDS011;2832;50.864;12.186;2022-10-22T15:25:28;0.90;;;0.90;;
5620;SDS011;2832;50.864;12.186;2022-10-22T15:27:57;0.90;;;0.90;;
5620;SDS011;2832;50.864;12.186;2022-10-22T15:30:25;0.90;;;0.90;;
5620;SDS011;2832;50.864;12.186;2022-10-22T15:32:53;0.90;;;0.90;;
5620;SDS011;2832;50.864;12.186;2022-10-22T15:35:26;0.90;;;0.90;;
5620;SDS011;2832;50.864;12.186;2022-10-22T15:37:55;0.90;;;0.90;;
5620;SDS011;2832;50.864;12.186;2022-10-22T15:40:23;0.80;;;0.80;;
5620;SDS011;2832;50.864;12.186;2022-10-22T15:42:51;0.90;;;0.90;;